Aviation Digital Data Service (ADDS)

Output produced by METARs form (0149 UTC 22 January 2020)
found at http://aviationweather.gov/metar/data/
 
METAR text: KPGV 220135Z AUTO 02007KT 10SM CLR M03/M08 A3040 RMK AO2
Conditions at: KPGV (PITT GREENVILLE , NC, US) observed 0135 UTC 22 January 2020
Temperature: -3.0°C (27°F)
Dewpoint: -8.0°C (18°F) [RH = 68%]
Pressure (altimeter): 30.40 inches Hg (1029.5 mb)
Winds: from the NNE (20 degrees) at 8 MPH (7 knots; 3.6 m/s)
Visibility: 10 or more miles (16+ km)
Ceiling: at least 12,000 feet AGL
Clouds: sky clear below 12,000 feet AGL
Weather: automated observation with no human augmentation;
there may or may not be significant weather present at this time

METAR text: KPGV 220115Z AUTO 02006KT 10SM CLR M02/M08 A3041 RMK AO2
Conditions at: KPGV (PITT GREENVILLE , NC, US) observed 0115 UTC 22 January 2020
Temperature: -2.0°C (28°F)
Dewpoint: -8.0°C (18°F) [RH = 63%]
Pressure (altimeter): 30.41 inches Hg (1029.9 mb)
Winds: from the NNE (20 degrees) at 7 MPH (6 knots; 3.1 m/s)
Visibility: 10 or more miles (16+ km)
Ceiling: at least 12,000 feet AGL
Clouds: sky clear below 12,000 feet AGL
Weather: automated observation with no human augmentation;
there may or may not be significant weather present at this time

METAR text: KPGV 220055Z AUTO 02006KT 10SM CLR M02/M09 A3041 RMK AO2
Conditions at: KPGV (PITT GREENVILLE , NC, US) observed 0055 UTC 22 January 2020
Temperature: -2.0°C (28°F)
Dewpoint: -9.0°C (16°F) [RH = 59%]
Pressure (altimeter): 30.41 inches Hg (1029.9 mb)
Winds: from the NNE (20 degrees) at 7 MPH (6 knots; 3.1 m/s)
Visibility: 10 or more miles (16+ km)
Ceiling: at least 12,000 feet AGL
Clouds: sky clear below 12,000 feet AGL
Weather: automated observation with no human augmentation;
there may or may not be significant weather present at this time

METAR text: KPGV 220035Z AUTO 01005KT 10SM CLR M02/M09 A3042 RMK AO2
Conditions at: KPGV (PITT GREENVILLE , NC, US) observed 0035 UTC 22 January 2020
Temperature: -2.0°C (28°F)
Dewpoint: -9.0°C (16°F) [RH = 59%]
Pressure (altimeter): 30.42 inches Hg (1030.2 mb)
Winds: from the N (10 degrees) at 6 MPH (5 knots; 2.6 m/s)
Visibility: 10 or more miles (16+ km)
Ceiling: at least 12,000 feet AGL
Clouds: sky clear below 12,000 feet AGL
Weather: automated observation with no human augmentation;
there may or may not be significant weather present at this time

METAR text: KPGV 220015Z AUTO 01005KT 10SM CLR M02/M09 A3040 RMK AO2
Conditions at: KPGV (PITT GREENVILLE , NC, US) observed 0015 UTC 22 January 2020
Temperature: -2.0°C (28°F)
Dewpoint: -9.0°C (16°F) [RH = 59%]
Pressure (altimeter): 30.40 inches Hg (1029.5 mb)
Winds: from the N (10 degrees) at 6 MPH (5 knots; 2.6 m/s)
Visibility: 10 or more miles (16+ km)
Ceiling: at least 12,000 feet AGL
Clouds: sky clear below 12,000 feet AGL
Weather: automated observation with no human augmentation;
there may or may not be significant weather present at this time

METAR text: KPGV 212355Z AUTO 01006KT 10SM CLR M01/M09 A3041 RMK AO2
Conditions at: KPGV (PITT GREENVILLE , NC, US) observed 2355 UTC 21 January 2020
Temperature: -1.0°C (30°F)
Dewpoint: -9.0°C (16°F) [RH = 55%]
Pressure (altimeter): 30.41 inches Hg (1029.9 mb)
Winds: from the N (10 degrees) at 7 MPH (6 knots; 3.1 m/s)
Visibility: 10 or more miles (16+ km)
Ceiling: at least 12,000 feet AGL
Clouds: sky clear below 12,000 feet AGL
Weather: automated observation with no human augmentation;
there may or may not be significant weather present at this time

Forecast for: KPGV (PITT GREENVILLE , NC, US)
Text: KPGV 212324Z 2200/2224 02010KT P6SM SKC AMD LTD TO CLD VIS AND WIND
Forecast period: 0000 UTC 22 January 2020 to 0000 UTC 23 January 2020
Forecast type: FROM: standard forecast or significant change
Winds: from the NNE (20 degrees) at 12 MPH (10 knots; 5.1 m/s)
Visibility: 6 or more miles 10+ km)
Clouds: clear skies
Weather: no significant weather forecast for this period